createdAt,value
2023-05-02T00:00:46.654Z,12.32
2023-05-02T00:01:46.773Z,12.35
2023-05-02T00:02:46.946Z,12.30
2023-05-02T00:03:46.160Z,12.30
2023-05-02T00:04:46.040Z,12.30
2023-05-02T00:05:46.058Z,12.32
2023-05-02T00:06:46.148Z,12.29
2023-05-02T00:07:46.014Z,12.30
2023-05-02T00:08:46.148Z,12.29
2023-05-02T00:09:46.242Z,12.30
2023-05-02T00:10:46.298Z,12.30
2023-05-02T00:11:46.341Z,12.28
2023-05-02T00:12:46.392Z,12.29
2023-05-02T00:13:46.461Z,12.28
2023-05-02T00:14:46.516Z,12.26
2023-05-02T00:15:46.573Z,12.28
2023-05-02T00:16:46.070Z,12.23
2023-05-02T00:17:46.757Z,12.22
2023-05-02T00:18:46.069Z,12.23
2023-05-02T00:19:45.933Z,12.23
2023-05-02T00:20:46.928Z,12.21
2023-05-02T00:21:46.872Z,12.21
2023-05-02T00:22:46.762Z,12.21
2023-05-02T00:23:46.914Z,12.17
2023-05-02T00:24:46.574Z,12.18
2023-05-02T00:25:46.665Z,12.14
2023-05-02T00:26:46.884Z,12.15
2023-05-02T00:27:46.986Z,12.14
2023-05-02T00:28:46.901Z,12.15
2023-05-02T00:29:46.848Z,12.11
2023-05-02T00:30:47.048Z,12.10
2023-05-02T00:31:46.910Z,12.11
2023-05-02T00:32:46.003Z,12.08
2023-05-02T00:33:45.839Z,12.08
2023-05-02T00:34:45.874Z,12.07
2023-05-02T00:35:45.827Z,12.07
2023-05-02T00:36:45.855Z,12.08
2023-05-02T00:37:45.821Z,12.07
2023-05-02T00:38:45.816Z,12.07
2023-05-02T00:39:45.802Z,12.05
2023-05-02T00:40:45.822Z,12.08
2023-05-02T00:41:45.837Z,12.05
2023-05-02T00:42:45.837Z,12.07
2023-05-02T00:43:45.863Z,12.04
2023-05-02T00:44:45.899Z,12.00
2023-05-02T00:45:45.895Z,12.05
2023-05-02T00:46:45.944Z,12.03
2023-05-02T00:47:45.974Z,12.04
2023-05-02T00:48:45.914Z,12.03
2023-05-02T00:49:46.086Z,12.00
2023-05-02T00:50:46.098Z,11.97
2023-05-02T00:51:46.100Z,11.99
2023-05-02T00:52:46.097Z,12.00
2023-05-02T00:53:46.105Z,11.99
2023-05-02T00:54:46.117Z,11.97
2023-05-02T00:55:46.117Z,11.97
2023-05-02T00:56:46.135Z,11.96
2023-05-02T00:57:46.127Z,11.99
2023-05-02T00:58:46.115Z,11.95
2023-05-02T00:59:46.153Z,11.95
2023-05-02T01:00:45.886Z,11.89
2023-05-02T01:01:46.192Z,11.96
2023-05-02T01:02:46.239Z,11.93
2023-05-02T01:03:45.711Z,11.95
2023-05-02T01:04:45.624Z,11.93
2023-05-02T01:05:45.657Z,11.91
2023-05-02T01:06:45.808Z,11.91
2023-05-02T01:07:45.601Z,11.93
2023-05-02T01:08:45.620Z,11.93
2023-05-02T01:09:45.930Z,11.91
2023-05-02T01:10:45.605Z,11.91
2023-05-02T01:11:45.612Z,11.89
2023-05-02T01:12:45.629Z,11.88
2023-05-02T01:13:45.626Z,11.89
2023-05-02T01:14:45.652Z,11.89
2023-05-02T01:15:45.662Z,11.88
2023-05-02T01:16:45.805Z,11.89
2023-05-02T01:17:45.682Z,11.87
2023-05-02T01:18:45.556Z,11.87
2023-05-02T01:19:45.551Z,11.85
2023-05-02T01:20:45.682Z,11.85
2023-05-02T01:21:45.679Z,11.82
2023-05-02T01:22:45.688Z,11.82
2023-05-02T01:23:45.692Z,11.80
2023-05-02T01:24:45.499Z,11.80
2023-05-02T01:25:45.712Z,11.80
2023-05-02T01:26:45.729Z,11.79
2023-05-02T01:27:45.722Z,11.80
2023-05-02T01:28:45.736Z,11.79
2023-05-02T01:29:45.732Z,11.77
2023-05-02T01:30:45.544Z,11.76
2023-05-02T01:31:45.471Z,11.77
2023-05-02T01:32:45.511Z,11.77
2023-05-02T01:33:45.557Z,11.73
2023-05-02T01:34:45.573Z,11.70
2023-05-02T01:35:45.443Z,11.73
2023-05-02T01:36:45.602Z,11.71
2023-05-02T01:37:45.424Z,11.76
2023-05-02T01:38:45.417Z,11.71
2023-05-02T01:39:45.412Z,11.70
2023-05-02T01:40:45.422Z,11.73
2023-05-02T01:41:45.428Z,11.67
2023-05-02T01:42:45.649Z,11.70
2023-05-02T01:43:45.654Z,11.70
2023-05-02T01:44:45.658Z,11.69
2023-05-02T01:45:45.695Z,11.66
2023-05-02T01:46:45.702Z,11.66
2023-05-02T01:47:45.773Z,11.66
2023-05-02T01:48:45.706Z,11.67
2023-05-02T01:49:45.903Z,11.66
2023-05-02T01:50:45.904Z,11.64
2023-05-02T01:51:45.916Z,11.67
2023-05-02T01:52:45.915Z,11.66
2023-05-02T01:53:45.362Z,11.64
2023-05-02T01:54:45.502Z,11.62
2023-05-02T01:55:45.919Z,11.67
2023-05-02T01:56:46.143Z,11.62
2023-05-02T01:57:46.145Z,11.62
2023-05-02T01:58:46.150Z,11.62
2023-05-02T01:59:46.152Z,11.62
2023-05-02T02:00:45.452Z,11.59
2023-05-02T02:01:45.376Z,11.59
2023-05-02T02:02:45.319Z,11.56
2023-05-02T02:03:45.344Z,11.56
2023-05-02T02:04:45.573Z,11.58
2023-05-02T02:05:45.403Z,11.55
2023-05-02T02:06:45.570Z,11.55
2023-05-02T02:07:45.390Z,11.55
2023-05-02T02:08:45.380Z,11.56
2023-05-02T02:09:45.411Z,11.54
2023-05-02T02:10:45.417Z,11.51
2023-05-02T02:11:45.418Z,11.52
2023-05-02T02:12:45.434Z,11.52
2023-05-02T02:13:45.429Z,11.51
2023-05-02T02:14:45.444Z,11.51
2023-05-02T02:15:45.246Z,11.51
2023-05-02T02:16:45.493Z,11.46
2023-05-02T02:17:45.146Z,11.48
2023-05-02T02:18:45.400Z,11.48
2023-05-02T02:19:45.471Z,11.49
2023-05-02T02:20:45.474Z,11.45
2023-05-02T02:21:45.487Z,11.43
2023-05-02T02:22:45.116Z,11.45
2023-05-02T02:23:45.497Z,11.41
2023-05-02T02:24:45.510Z,11.43
2023-05-02T02:25:45.513Z,11.40
2023-05-02T02:26:45.516Z,11.43
2023-05-02T02:27:45.542Z,11.41
2023-05-02T02:28:45.132Z,11.41
2023-05-02T02:29:45.069Z,11.43
2023-05-02T02:30:45.184Z,11.43
2023-05-02T02:31:45.049Z,11.43
2023-05-02T02:32:45.343Z,11.43
2023-05-02T02:33:45.370Z,11.41
2023-05-02T02:34:45.422Z,11.40
2023-05-02T02:35:45.183Z,11.38
2023-05-02T02:36:45.186Z,11.37
2023-05-02T02:37:45.193Z,11.34
2023-05-02T02:38:45.206Z,11.34
2023-05-02T02:39:45.202Z,11.34
2023-05-02T02:40:45.227Z,11.34
2023-05-02T02:41:45.427Z,11.31
2023-05-02T02:42:45.432Z,11.28
2023-05-02T02:43:45.443Z,11.25
2023-05-02T02:44:45.451Z,11.23
2023-05-02T02:45:45.473Z,11.19
2023-05-02T02:46:45.755Z,11.18
2023-05-02T02:47:45.113Z,11.13
2023-05-02T02:48:45.730Z,11.13
2023-05-02T02:49:45.332Z,11.08
2023-05-02T02:50:44.953Z,11.11
2023-05-02T02:51:44.898Z,11.09
2023-05-02T02:52:44.874Z,11.04
2023-05-02T02:53:45.820Z,11.03
2023-05-02T02:54:45.502Z,10.98
2023-05-02T02:55:45.887Z,10.98
2023-05-02T02:56:44.916Z,11.03
2023-05-02T02:57:44.935Z,10.98
2023-05-02T02:58:44.844Z,10.95
2023-05-02T02:59:44.899Z,10.93
2023-05-02T03:00:44.999Z,10.91
2023-05-02T03:01:44.981Z,10.91
2023-05-02T03:02:44.994Z,10.93
2023-05-02T03:03:45.020Z,10.94
2023-05-02T03:04:44.963Z,10.95
2023-05-02T03:05:44.989Z,10.94
2023-05-02T03:06:44.828Z,10.95
2023-05-02T03:07:44.991Z,10.94
2023-05-02T03:08:44.988Z,10.95
2023-05-02T03:09:45.085Z,10.97
2023-05-02T03:10:45.001Z,10.97
2023-05-02T03:11:44.804Z,10.98
2023-05-02T03:12:45.014Z,10.97
2023-05-02T03:13:45.024Z,10.98
2023-05-02T03:14:45.029Z,11.00
2023-05-02T03:15:45.068Z,11.00
2023-05-02T03:16:45.156Z,10.95
2023-05-02T03:17:44.912Z,10.98
2023-05-02T03:18:44.796Z,10.98
2023-05-02T03:19:45.071Z,10.94
2023-05-02T03:20:45.275Z,10.94
2023-05-02T03:21:45.288Z,10.93
2023-05-02T03:22:45.290Z,10.94
2023-05-02T03:23:44.690Z,10.93
2023-05-02T03:24:44.698Z,10.93
2023-05-02T03:25:44.714Z,10.90
2023-05-02T03:26:44.666Z,10.87
2023-05-02T03:27:44.737Z,10.87
2023-05-02T03:28:44.713Z,10.85
2023-05-02T03:29:44.725Z,10.87
2023-05-02T03:30:44.761Z,10.87
2023-05-02T03:31:44.784Z,10.86
2023-05-02T03:32:44.832Z,10.87
2023-05-02T03:33:44.965Z,10.83
2023-05-02T03:34:44.966Z,10.87
2023-05-02T03:35:44.973Z,10.86
2023-05-02T03:36:44.999Z,10.82
2023-05-02T03:37:45.507Z,10.86
2023-05-02T03:38:44.986Z,10.87
2023-05-02T03:39:45.204Z,10.86
2023-05-02T03:40:45.209Z,10.87
2023-05-02T03:41:44.806Z,10.90
2023-05-02T03:42:45.015Z,10.90
2023-05-02T03:43:45.250Z,10.91
2023-05-02T03:44:45.448Z,10.90
2023-05-02T03:45:47.574Z,10.87
2023-05-02T03:46:45.368Z,10.85
2023-05-02T03:47:44.864Z,10.86
2023-05-02T03:48:45.424Z,10.83
2023-05-02T03:49:44.654Z,10.82
2023-05-02T03:50:44.649Z,10.83
2023-05-02T03:51:45.283Z,10.82
2023-05-02T03:52:44.492Z,10.79
2023-05-02T03:53:44.521Z,10.82
2023-05-02T03:54:44.520Z,10.82
2023-05-02T03:55:44.510Z,10.83
2023-05-02T03:56:44.570Z,10.80
2023-05-02T03:57:44.622Z,10.85
2023-05-02T03:58:44.724Z,10.86
2023-05-02T03:59:44.515Z,10.85
2023-05-02T04:00:44.813Z,10.83
2023-05-02T04:01:44.586Z,10.86
2023-05-02T04:02:45.071Z,10.82
2023-05-02T04:03:45.099Z,10.82
2023-05-02T04:04:44.679Z,10.80
2023-05-02T04:05:44.959Z,10.80
2023-05-02T04:06:45.193Z,10.79
2023-05-02T04:07:44.569Z,10.79
2023-05-02T04:08:44.566Z,10.82
2023-05-02T04:09:44.576Z,10.79
2023-05-02T04:10:44.601Z,10.82
2023-05-02T04:11:45.254Z,10.82
2023-05-02T04:12:44.407Z,10.82
2023-05-02T04:13:44.399Z,10.82
2023-05-02T04:14:44.619Z,10.87
2023-05-02T04:15:44.861Z,10.85
2023-05-02T04:16:45.323Z,10.83
2023-05-02T04:17:44.886Z,10.85
2023-05-02T04:18:45.072Z,10.82
2023-05-02T04:19:45.246Z,10.83
2023-05-02T04:20:44.465Z,10.85
2023-05-02T04:21:44.290Z,10.85
2023-05-02T04:22:44.374Z,10.83
2023-05-02T04:23:44.307Z,10.83
2023-05-02T04:24:44.289Z,10.82
2023-05-02T04:25:44.372Z,10.85
2023-05-02T04:26:44.330Z,10.80
2023-05-02T04:27:44.316Z,10.80
2023-05-02T04:28:44.355Z,10.82
2023-05-02T04:29:44.681Z,10.83
2023-05-02T04:30:44.339Z,10.85
2023-05-02T04:31:44.619Z,10.85
2023-05-02T04:32:44.361Z,10.86
2023-05-02T04:33:44.759Z,10.87
2023-05-02T04:34:44.744Z,10.82
2023-05-02T04:35:44.549Z,10.86
2023-05-02T04:36:44.545Z,10.86
2023-05-02T04:37:44.316Z,10.85
2023-05-02T04:38:44.987Z,10.87
2023-05-02T04:39:44.771Z,10.85
2023-05-02T04:40:44.585Z,10.83
2023-05-02T04:41:44.788Z,10.85
2023-05-02T04:42:45.085Z,10.86
2023-05-02T04:43:44.998Z,10.87
2023-05-02T04:44:45.155Z,10.87
2023-05-02T04:45:44.432Z,10.87
2023-05-02T04:46:45.166Z,10.85
2023-05-02T04:47:45.242Z,10.85
2023-05-02T04:48:44.093Z,10.85
2023-05-02T04:49:44.262Z,10.82
2023-05-02T04:50:44.084Z,10.85
2023-05-02T04:51:44.087Z,10.85
2023-05-02T04:52:45.551Z,10.85
2023-05-02T04:53:44.167Z,10.85
2023-05-02T04:54:44.247Z,10.87
2023-05-02T04:55:44.078Z,10.85
2023-05-02T04:56:44.269Z,10.86
2023-05-02T04:57:44.276Z,10.80
2023-05-02T04:58:44.295Z,10.75
2023-05-02T04:59:44.291Z,10.73
2023-05-02T05:00:44.297Z,10.68
2023-05-02T05:01:44.318Z,10.70
2023-05-02T05:02:44.152Z,10.62
2023-05-02T05:03:44.338Z,10.61
2023-05-02T05:04:44.323Z,10.60
2023-05-02T05:05:44.371Z,10.58
2023-05-02T05:06:44.364Z,10.54
2023-05-02T05:07:43.992Z,10.45
2023-05-02T05:08:44.177Z,10.46
2023-05-02T05:09:43.956Z,10.46
2023-05-02T05:10:44.361Z,10.43
2023-05-02T05:11:44.369Z,10.45
2023-05-02T05:12:44.168Z,10.45
2023-05-02T05:13:44.386Z,10.41
2023-05-02T05:14:44.398Z,10.36
2023-05-02T05:15:44.547Z,10.41
2023-05-02T05:16:44.518Z,10.39
2023-05-02T05:17:44.478Z,10.42
2023-05-02T05:18:44.425Z,10.43
2023-05-02T05:19:43.881Z,10.41
2023-05-02T05:20:43.888Z,10.43
2023-05-02T05:21:43.861Z,10.45
2023-05-02T05:22:44.029Z,10.41
2023-05-02T05:23:43.930Z,10.42
2023-05-02T05:24:43.858Z,10.45
2023-05-02T05:25:45.776Z,10.43
2023-05-02T05:26:43.854Z,10.45
2023-05-02T05:27:43.874Z,10.41
2023-05-02T05:28:43.869Z,10.41
2023-05-02T05:29:43.885Z,10.45
2023-05-02T05:30:43.898Z,10.42
2023-05-02T05:31:43.970Z,10.43
2023-05-02T05:32:43.968Z,10.42
2023-05-02T05:33:43.932Z,10.45
2023-05-02T05:34:43.917Z,10.46
2023-05-02T05:35:43.922Z,10.48
2023-05-02T05:36:43.784Z,10.52
2023-05-02T05:37:43.890Z,10.52
2023-05-02T05:38:43.747Z,10.55
2023-05-02T05:39:43.943Z,10.49
2023-05-02T05:40:43.995Z,10.52
2023-05-02T05:41:44.011Z,10.57
2023-05-02T05:42:44.009Z,10.49
2023-05-02T05:43:43.862Z,10.52
2023-05-02T05:44:44.036Z,10.55
2023-05-02T05:45:44.029Z,10.57
2023-05-02T05:46:44.049Z,10.57
2023-05-02T05:47:44.219Z,10.57
2023-05-02T05:48:44.208Z,10.58
2023-05-02T05:49:44.222Z,10.62
2023-05-02T05:50:43.682Z,10.65
2023-05-02T05:51:43.708Z,10.67
2023-05-02T05:52:43.874Z,10.68
2023-05-02T05:53:43.856Z,10.67
2023-05-02T05:54:43.936Z,10.68
2023-05-02T05:55:44.001Z,10.73
2023-05-02T05:56:44.062Z,10.75
2023-05-02T05:57:44.127Z,10.70
2023-05-02T05:58:43.637Z,10.70
2023-05-02T05:59:43.929Z,10.73
2023-05-02T06:00:44.143Z,10.75
2023-05-02T06:01:44.301Z,10.79
2023-05-02T06:02:44.410Z,10.78
2023-05-02T06:03:43.910Z,10.80
2023-05-02T06:04:43.945Z,10.76
2023-05-02T06:05:44.124Z,10.75
2023-05-02T06:06:44.387Z,10.78
2023-05-02T06:07:43.864Z,10.76
2023-05-02T06:08:43.931Z,10.79
2023-05-02T06:09:43.553Z,10.79
2023-05-02T06:10:43.556Z,10.78
2023-05-02T06:11:44.222Z,10.82
2023-05-02T06:12:43.529Z,10.78
2023-05-02T06:13:43.653Z,10.82
2023-05-02T06:14:43.584Z,10.80
2023-05-02T06:15:44.387Z,10.73
2023-05-02T06:16:43.780Z,10.73
2023-05-02T06:17:43.550Z,10.72
2023-05-02T06:18:43.487Z,10.73
2023-05-02T06:19:43.492Z,10.68
2023-05-02T06:20:43.486Z,10.68
2023-05-02T06:21:43.545Z,10.70
2023-05-02T06:22:43.498Z,10.70
2023-05-02T06:23:43.464Z,10.67
2023-05-02T06:24:43.465Z,10.72
2023-05-02T06:25:43.458Z,10.65
2023-05-02T06:26:43.587Z,10.64
2023-05-02T06:27:43.555Z,10.64
2023-05-02T06:28:43.411Z,10.62
2023-05-02T06:29:43.580Z,10.64
2023-05-02T06:30:43.595Z,10.64
2023-05-02T06:31:43.641Z,10.64
2023-05-02T06:32:43.401Z,10.60
2023-05-02T06:33:43.632Z,10.60
2023-05-02T06:34:43.369Z,10.58
2023-05-02T06:35:43.381Z,10.55
2023-05-02T06:36:43.381Z,10.60
2023-05-02T06:37:43.430Z,10.60
2023-05-02T06:38:43.484Z,10.55
2023-05-02T06:39:43.654Z,10.48
2023-05-02T06:40:43.694Z,10.42
2023-05-02T06:41:43.409Z,10.41
2023-05-02T06:42:43.739Z,10.41
2023-05-02T06:43:43.723Z,10.41
2023-05-02T06:44:43.330Z,10.36
2023-05-02T06:45:43.670Z,10.35
2023-05-02T06:46:43.792Z,10.30
2023-05-02T06:47:43.390Z,10.27
2023-05-02T06:48:43.312Z,10.26
2023-05-02T06:49:43.324Z,10.21
2023-05-02T06:50:43.405Z,10.16
2023-05-02T06:51:43.456Z,10.16
2023-05-02T06:52:43.935Z,10.14
2023-05-02T06:53:43.671Z,10.14
2023-05-02T06:54:43.403Z,10.14
2023-05-02T06:55:43.663Z,10.17
2023-05-02T06:56:43.747Z,10.18
2023-05-02T06:57:43.321Z,10.21
2023-05-02T06:58:43.651Z,10.20
2023-05-02T06:59:43.981Z,10.18
2023-05-02T07:00:43.296Z,10.24
2023-05-02T07:01:43.224Z,10.20
2023-05-02T07:02:43.968Z,10.24
2023-05-02T07:03:43.210Z,10.18
2023-05-02T07:04:43.741Z,10.21
2023-05-02T07:05:43.806Z,10.23
2023-05-02T07:06:43.453Z,10.31
2023-05-02T07:07:43.168Z,10.35
2023-05-02T07:08:43.722Z,10.34
2023-05-02T07:09:44.035Z,10.30
2023-05-02T07:10:43.336Z,10.36
2023-05-02T07:11:43.650Z,10.28
2023-05-02T07:12:43.965Z,10.34
2023-05-02T07:13:43.181Z,10.36
2023-05-02T07:14:43.106Z,10.39
2023-05-02T07:15:43.420Z,10.54
2023-05-02T07:16:43.242Z,10.60
2023-05-02T07:17:43.696Z,10.70
2023-05-02T07:18:43.820Z,10.79
2023-05-02T07:19:45.373Z,10.82
2023-05-02T07:20:43.176Z,10.86
2023-05-02T07:21:43.228Z,11.01
2023-05-02T07:22:43.092Z,11.11
2023-05-02T07:23:43.285Z,11.05
2023-05-02T07:24:43.317Z,11.11
2023-05-02T07:25:43.386Z,11.18
2023-05-02T07:26:43.261Z,11.19
2023-05-02T07:27:43.482Z,11.15
2023-05-02T07:28:43.153Z,11.13
2023-05-02T07:29:43.181Z,11.22
2023-05-02T07:30:43.494Z,11.20
2023-05-02T07:31:43.707Z,11.27
2023-05-02T07:32:43.106Z,11.36
2023-05-02T07:33:42.984Z,11.22
2023-05-02T07:34:43.752Z,11.15
2023-05-02T07:35:43.017Z,11.09
2023-05-02T07:36:43.356Z,11.04
2023-05-02T07:37:43.087Z,10.97
2023-05-02T07:38:42.950Z,10.97
2023-05-02T07:39:43.355Z,11.01
2023-05-02T07:40:43.671Z,10.98
2023-05-02T07:41:43.782Z,10.97
2023-05-02T07:42:43.174Z,10.98
2023-05-02T07:43:43.504Z,11.03
2023-05-02T07:44:43.019Z,11.08
2023-05-02T07:45:42.960Z,11.09
2023-05-02T07:46:43.051Z,11.12
2023-05-02T07:47:42.964Z,11.12
2023-05-02T07:48:43.049Z,11.11
2023-05-02T07:49:43.043Z,11.08
2023-05-02T07:50:43.153Z,11.05
2023-05-02T07:51:42.930Z,11.03
2023-05-02T07:52:42.845Z,11.05
2023-05-02T07:53:43.254Z,11.08
2023-05-02T07:54:42.953Z,11.05
2023-05-02T07:55:43.171Z,11.08
2023-05-02T07:56:43.402Z,11.04
2023-05-02T07:57:43.425Z,11.00
2023-05-02T07:58:43.169Z,11.04
2023-05-02T07:59:43.427Z,11.09
2023-05-02T08:00:43.640Z,11.11
2023-05-02T08:01:42.904Z,11.11
2023-05-02T08:02:43.127Z,11.05
2023-05-02T08:03:42.918Z,11.03
2023-05-02T08:04:42.981Z,10.98
2023-05-02T08:05:43.258Z,10.98
2023-05-02T08:06:43.598Z,11.01
2023-05-02T08:07:42.805Z,10.95
2023-05-02T08:08:43.193Z,10.94
2023-05-02T08:09:43.497Z,10.72
2023-05-02T08:10:42.777Z,10.70
2023-05-02T08:11:43.085Z,10.42
2023-05-02T08:12:43.462Z,10.21
2023-05-02T08:13:42.703Z,10.05
2023-05-02T08:14:43.028Z,9.94
2023-05-02T08:15:43.366Z,9.93
2023-05-02T08:16:44.132Z,9.81
2023-05-02T08:17:42.798Z,9.70
2023-05-02T08:18:42.810Z,9.69
2023-05-02T08:19:42.655Z,9.63
2023-05-02T08:20:42.700Z,9.57
2023-05-02T08:21:42.743Z,9.51
2023-05-02T08:22:43.025Z,9.45
2023-05-02T08:23:42.800Z,9.41
2023-05-02T08:24:43.131Z,9.26
2023-05-02T08:25:42.911Z,9.18
2023-05-02T08:26:42.693Z,9.14
2023-05-02T08:27:43.156Z,9.09
2023-05-02T08:28:43.052Z,9.06
2023-05-02T08:29:42.619Z,9.12
2023-05-02T08:30:42.673Z,9.03
2023-05-02T08:31:43.245Z,8.99
2023-05-02T08:32:43.269Z,8.96
2023-05-02T08:33:42.748Z,8.83
2023-05-02T08:34:42.658Z,8.67
2023-05-02T08:35:43.040Z,8.55
2023-05-02T08:36:42.769Z,8.53
2023-05-02T08:37:42.622Z,8.55
2023-05-02T08:38:43.415Z,8.53
2023-05-02T08:39:42.690Z,8.55
2023-05-02T08:40:43.396Z,8.50
2023-05-02T08:41:43.326Z,8.47
2023-05-02T08:42:42.612Z,8.50
2023-05-02T08:43:42.929Z,8.62
2023-05-02T08:44:42.498Z,8.60
2023-05-02T08:45:42.520Z,8.56
2023-05-02T08:46:42.523Z,8.57
2023-05-02T08:47:43.945Z,8.52
2023-05-02T08:48:42.457Z,8.62
2023-05-02T08:49:42.712Z,8.70
2023-05-02T08:50:42.793Z,8.68
2023-05-02T08:51:42.831Z,8.60
2023-05-02T08:52:42.458Z,8.52
2023-05-02T08:53:42.936Z,8.50
2023-05-02T08:54:43.008Z,8.62
2023-05-02T08:55:42.975Z,8.63
2023-05-02T08:56:42.440Z,8.70
2023-05-02T08:57:42.457Z,8.70
2023-05-02T08:58:42.553Z,8.68
2023-05-02T08:59:42.851Z,8.71
2023-05-02T09:00:42.532Z,8.63
2023-05-02T09:01:42.469Z,8.63
2023-05-02T09:02:42.563Z,8.67
2023-05-02T09:03:43.116Z,8.70
2023-05-02T09:04:43.890Z,8.77
2023-05-02T09:05:42.371Z,8.72
2023-05-02T09:06:42.413Z,8.75
2023-05-02T09:07:42.370Z,8.81
2023-05-02T09:08:42.603Z,8.95
2023-05-02T09:09:42.389Z,9.03
2023-05-02T09:10:42.409Z,8.88
2023-05-02T09:11:42.423Z,8.90
2023-05-02T09:12:42.292Z,8.85
2023-05-02T09:13:42.642Z,8.88
2023-05-02T09:14:42.388Z,8.96
2023-05-02T09:15:42.454Z,9.03
2023-05-02T09:16:42.352Z,9.14
2023-05-02T09:17:43.866Z,9.12
2023-05-02T09:18:42.293Z,9.12
2023-05-02T09:19:42.254Z,9.11
2023-05-02T09:20:42.317Z,9.06
2023-05-02T09:21:42.329Z,9.03
2023-05-02T09:22:42.381Z,9.14
2023-05-02T09:23:42.230Z,9.27
2023-05-02T09:24:42.261Z,9.26
2023-05-02T09:25:42.429Z,9.27
2023-05-02T09:26:42.486Z,9.27
2023-05-02T09:27:42.192Z,9.24
2023-05-02T09:28:42.667Z,9.16
2023-05-02T09:29:42.723Z,9.09
2023-05-02T09:30:42.397Z,8.98
2023-05-02T09:32:42.738Z,8.95
2023-05-02T09:33:42.287Z,9.03
2023-05-02T09:34:42.275Z,9.06
2023-05-02T09:35:42.735Z,9.01
2023-05-02T09:36:42.207Z,9.01
2023-05-02T09:37:42.142Z,9.03
2023-05-02T09:38:42.775Z,9.03
2023-05-02T09:39:42.227Z,8.96
2023-05-02T09:40:42.451Z,8.92
2023-05-02T09:41:42.102Z,8.98
2023-05-02T09:42:42.165Z,8.88
2023-05-02T09:43:42.141Z,8.86
2023-05-02T09:44:42.137Z,8.89
2023-05-02T09:45:42.289Z,8.96
2023-05-02T09:46:42.356Z,8.98
2023-05-02T09:47:43.614Z,9.03
2023-05-02T09:48:42.188Z,8.96
2023-05-02T09:49:42.217Z,8.96
2023-05-02T09:50:42.215Z,8.96
2023-05-02T09:51:42.219Z,9.04
2023-05-02T09:52:42.067Z,9.11
2023-05-02T09:53:42.262Z,9.11
2023-05-02T09:54:42.269Z,9.19
2023-05-02T09:55:43.494Z,9.32
2023-05-02T09:56:42.034Z,9.32
2023-05-02T09:57:42.317Z,9.30
2023-05-02T09:58:41.999Z,9.34
2023-05-02T09:59:41.984Z,9.41
2023-05-02T10:00:42.021Z,9.40
2023-05-02T10:01:42.515Z,9.32
2023-05-02T10:02:41.971Z,9.27
2023-05-02T10:03:42.012Z,9.32
2023-05-02T10:04:42.116Z,9.29
2023-05-02T10:05:42.144Z,9.27
2023-05-02T10:06:42.461Z,9.14
2023-05-02T10:07:42.250Z,9.12
2023-05-02T10:08:42.046Z,9.15
2023-05-02T10:09:42.381Z,9.23
2023-05-02T10:10:41.931Z,9.29
2023-05-02T10:11:41.977Z,9.29
2023-05-02T10:12:42.036Z,9.40
2023-05-02T10:13:41.893Z,9.42
2023-05-02T10:14:41.913Z,9.45
2023-05-02T10:15:41.936Z,9.33
2023-05-02T10:16:41.871Z,9.33
2023-05-02T10:17:41.856Z,9.26
2023-05-02T10:18:41.882Z,9.33
2023-05-02T10:19:41.899Z,9.32
2023-05-02T10:20:41.893Z,9.36
2023-05-02T10:21:42.009Z,9.30
2023-05-02T10:22:41.949Z,9.23
2023-05-02T10:23:42.083Z,9.23
2023-05-02T10:24:41.969Z,9.26
2023-05-02T10:25:42.198Z,9.32
2023-05-02T10:26:42.206Z,9.41
2023-05-02T10:27:41.915Z,9.45
2023-05-02T10:28:42.208Z,9.44
2023-05-02T10:29:42.355Z,9.45
2023-05-02T10:30:41.783Z,9.45
2023-05-02T10:31:42.955Z,9.51
2023-05-02T10:32:41.826Z,9.59
2023-05-02T10:33:41.770Z,9.60
2023-05-02T10:34:43.210Z,9.70
2023-05-02T10:35:41.820Z,9.75
2023-05-02T10:36:41.835Z,9.77
2023-05-02T10:37:42.637Z,9.69
2023-05-02T10:38:41.876Z,9.66
2023-05-02T10:39:41.736Z,9.78
2023-05-02T10:40:41.785Z,9.88
2023-05-02T10:41:41.735Z,9.90
2023-05-02T10:42:41.704Z,9.94
2023-05-02T10:43:41.688Z,10.03
2023-05-02T10:44:41.951Z,10.10
2023-05-02T10:45:42.032Z,9.98
2023-05-02T10:46:41.835Z,9.88
2023-05-02T10:47:42.057Z,9.78
2023-05-02T10:48:41.993Z,9.72
2023-05-02T10:49:41.646Z,9.66
2023-05-02T10:50:41.966Z,9.59
2023-05-02T10:51:42.052Z,9.57
2023-05-02T10:52:41.887Z,9.51
2023-05-02T10:53:41.883Z,9.55
2023-05-02T10:54:42.063Z,9.48
2023-05-02T10:55:41.605Z,9.51
2023-05-02T10:56:41.806Z,9.59
2023-05-02T10:57:41.628Z,9.73
2023-05-02T10:58:41.591Z,9.78
2023-05-02T10:59:41.728Z,9.90
2023-05-02T11:00:42.091Z,10.08
2023-05-02T11:01:42.175Z,10.10
2023-05-02T11:02:41.756Z,10.18
2023-05-02T11:03:43.010Z,10.28
2023-05-02T11:04:42.202Z,10.41
2023-05-02T11:05:41.522Z,10.35
2023-05-02T11:06:41.929Z,10.30
2023-05-02T11:07:41.544Z,10.24
2023-05-02T11:08:41.500Z,10.20
2023-05-02T11:09:41.566Z,10.27
2023-05-02T11:10:41.492Z,10.23
2023-05-02T11:11:41.652Z,10.23
2023-05-02T11:12:41.489Z,10.20
2023-05-02T11:13:41.762Z,10.20
2023-05-02T11:14:41.822Z,10.20
2023-05-02T11:15:41.646Z,10.24
2023-05-02T11:16:41.509Z,10.26
2023-05-02T11:17:41.551Z,10.35
2023-05-02T11:18:41.471Z,10.30
2023-05-02T11:19:41.469Z,10.28
2023-05-02T11:20:41.467Z,10.23
2023-05-02T11:21:41.513Z,10.27
2023-05-02T11:22:42.454Z,10.20
2023-05-02T11:23:41.553Z,10.18
2023-05-02T11:24:41.443Z,10.17
2023-05-02T11:25:41.571Z,10.14
2023-05-02T11:26:41.604Z,10.08
2023-05-02T11:27:41.421Z,10.05
2023-05-02T11:28:42.834Z,10.02
2023-05-02T11:29:41.670Z,10.08
2023-05-02T11:30:41.498Z,10.06
2023-05-02T11:31:41.589Z,10.05
2023-05-02T11:32:41.748Z,9.98
2023-05-02T11:33:42.064Z,9.94
2023-05-02T11:34:41.454Z,9.99
2023-05-02T11:35:41.344Z,9.90
2023-05-02T11:36:42.136Z,9.88
2023-05-02T11:37:41.840Z,9.87
2023-05-02T11:38:41.290Z,9.90
2023-05-02T11:41:07.526Z,10.01
2023-05-02T11:42:07.441Z,9.94
2023-05-02T11:43:07.606Z,9.94
2023-05-02T11:44:07.563Z,9.91
2023-05-02T11:45:07.705Z,9.96
2023-05-02T11:46:07.386Z,9.91
2023-05-02T11:47:07.379Z,9.91
2023-05-02T11:48:07.637Z,9.93
2023-05-02T11:49:09.205Z,10.03
2023-05-02T11:50:07.823Z,10.14
2023-05-02T11:51:07.532Z,10.23
2023-05-02T11:52:07.962Z,10.30
2023-05-02T11:53:07.949Z,10.26
2023-05-02T11:54:07.743Z,10.35
2023-05-02T11:55:09.714Z,10.34
2023-05-02T11:56:08.129Z,10.36
2023-05-02T11:57:07.135Z,10.36
2023-05-02T11:58:07.169Z,10.52
2023-05-02T11:59:07.230Z,10.57
2023-05-02T12:00:07.259Z,10.49
2023-05-02T12:01:08.241Z,10.57
2023-05-02T12:02:07.447Z,10.62
2023-05-02T12:03:07.517Z,10.80
2023-05-02T12:04:07.748Z,10.93
2023-05-02T12:05:07.220Z,11.03
2023-05-02T12:06:07.658Z,11.16
2023-05-02T12:07:08.087Z,11.27
2023-05-02T12:08:07.206Z,11.36
2023-05-02T12:09:07.248Z,11.37
2023-05-02T12:10:07.359Z,11.19
2023-05-02T12:11:07.365Z,11.08
2023-05-02T12:12:07.452Z,11.04
2023-05-02T12:13:08.893Z,11.04
2023-05-02T12:14:07.530Z,10.98
2023-05-02T12:15:07.586Z,10.85
2023-05-02T12:16:07.635Z,10.75
2023-05-02T12:17:07.681Z,10.78
2023-05-02T12:18:07.788Z,10.76
2023-05-02T12:19:07.796Z,10.68
2023-05-02T12:20:07.895Z,10.68
2023-05-02T12:21:07.923Z,10.64
2023-05-02T12:22:07.860Z,10.58
2023-05-02T12:23:08.039Z,10.52
2023-05-02T12:24:07.405Z,10.54
2023-05-02T12:25:07.817Z,10.60
2023-05-02T12:26:07.310Z,10.73
2023-05-02T12:27:07.874Z,10.78
2023-05-02T12:28:07.791Z,10.79
2023-05-02T12:29:07.923Z,10.80
2023-05-02T12:30:07.852Z,10.87
2023-05-02T12:31:07.783Z,10.83
2023-05-02T12:32:07.903Z,10.79
2023-05-02T12:33:07.955Z,10.83
2023-05-02T12:34:07.725Z,10.90
2023-05-02T12:35:07.884Z,10.95
2023-05-02T12:36:07.785Z,11.11
2023-05-02T12:37:06.855Z,11.20
2023-05-02T12:38:06.885Z,11.30
2023-05-02T12:39:06.891Z,11.45
2023-05-02T12:40:06.984Z,11.49
2023-05-02T12:41:07.047Z,11.64
2023-05-02T12:42:07.080Z,11.70
2023-05-02T12:43:06.808Z,11.69
2023-05-02T12:44:07.234Z,11.89
2023-05-02T12:45:07.250Z,11.89
2023-05-02T12:46:07.301Z,11.89
2023-05-02T12:47:07.440Z,11.88
2023-05-02T12:48:07.461Z,11.89
2023-05-02T12:49:07.499Z,11.84
2023-05-02T12:50:07.541Z,11.85
2023-05-02T12:51:07.120Z,11.82
2023-05-02T12:52:06.893Z,11.66
2023-05-02T12:53:06.886Z,11.62
2023-05-02T12:54:06.788Z,11.59
2023-05-02T12:55:06.888Z,11.52
2023-05-02T12:56:06.895Z,11.48
2023-05-02T12:57:06.936Z,11.36
2023-05-02T12:58:07.121Z,11.25
2023-05-02T12:59:06.717Z,11.25
2023-05-02T13:00:07.132Z,11.36
2023-05-02T13:01:07.180Z,11.48